Terminal Aerodrome Forecast
Issued by NWS

Home | Current Version | Previous Version | Graphics & Text | Print | Product List | Glossary On
Versions: 1 2 3 4 5 6 7 8 9 10 11 12 13 14 15 16 17 18
910
FTUS43 KABR 151727
TAFATY
TAF
KATY 151727Z 1518/1618 34018G25KT P6SM SCT020
     FM160200 34015KT P6SM BKN050
     FM161200 31008KT P6SM SCT250=

USA.gov is the U.S. government's official web portal to all federal, state and local government web resources and services.